sensor_id;sensor_type;location;lat;lon;timestamp;temperature;humidity
21646;DHT22;10984;45.712;4.800;2023-05-25T00:00:28;14.80;1.00
21646;DHT22;10984;45.712;4.800;2023-05-25T00:02:53;14.80;1.00
21646;DHT22;10984;45.712;4.800;2023-05-25T00:05:19;14.80;1.00
21646;DHT22;10984;45.712;4.800;2023-05-25T00:07:46;14.70;1.00
21646;DHT22;10984;45.712;4.800;2023-05-25T00:10:12;14.70;1.00
21646;DHT22;10984;45.712;4.800;2023-05-25T00:12:38;14.60;1.00
21646;DHT22;10984;45.712;4.800;2023-05-25T00:15:04;14.60;1.00
21646;DHT22;10984;45.712;4.800;2023-05-25T00:17:31;14.50;1.00
21646;DHT22;10984;45.712;4.800;2023-05-25T00:19:58;14.50;1.00
21646;DHT22;10984;45.712;4.800;2023-05-25T00:22:51;14.50;1.00
21646;DHT22;10984;45.712;4.800;2023-05-25T00:25:20;14.50;1.00
21646;DHT22;10984;45.712;4.800;2023-05-25T00:27:46;14.40;1.00
21646;DHT22;10984;45.712;4.800;2023-05-25T00:30:12;14.40;1.00
21646;DHT22;10984;45.712;4.800;2023-05-25T00:32:37;14.40;1.00
21646;DHT22;10984;45.712;4.800;2023-05-25T00:35:03;14.30;1.00
21646;DHT22;10984;45.712;4.800;2023-05-25T00:37:29;14.30;1.00
21646;DHT22;10984;45.712;4.800;2023-05-25T00:39:55;14.30;1.00
21646;DHT22;10984;45.712;4.800;2023-05-25T00:42:21;14.20;1.00
21646;DHT22;10984;45.712;4.800;2023-05-25T00:44:47;14.20;1.00
21646;DHT22;10984;45.712;4.800;2023-05-25T00:47:13;14.20;1.00
21646;DHT22;10984;45.712;4.800;2023-05-25T00:49:40;14.10;1.00
21646;DHT22;10984;45.712;4.800;2023-05-25T00:52:06;14.10;1.00
21646;DHT22;10984;45.712;4.800;2023-05-25T00:54:32;14.00;1.00
21646;DHT22;10984;45.712;4.800;2023-05-25T00:57:18;14.00;1.00
21646;DHT22;10984;45.712;4.800;2023-05-25T00:59:50;13.90;1.00
21646;DHT22;10984;45.712;4.800;2023-05-25T01:02:18;14.00;1.00
21646;DHT22;10984;45.712;4.800;2023-05-25T01:07:29;13.90;1.00
21646;DHT22;10984;45.712;4.800;2023-05-25T01:10:00;13.90;1.00
21646;DHT22;10984;45.712;4.800;2023-05-25T01:12:29;13.90;1.00
21646;DHT22;10984;45.712;4.800;2023-05-25T01:14:57;13.90;1.00
21646;DHT22;10984;45.712;4.800;2023-05-25T01:17:24;13.90;1.00
21646;DHT22;10984;45.712;4.800;2023-05-25T01:19:50;13.80;1.00
21646;DHT22;10984;45.712;4.800;2023-05-25T01:22:31;13.80;1.00
21646;DHT22;10984;45.712;4.800;2023-05-25T01:28:10;13.80;1.00
21646;DHT22;10984;45.712;4.800;2023-05-25T01:30:39;13.80;1.00
21646;DHT22;10984;45.712;4.800;2023-05-25T01:33:06;13.70;1.00
21646;DHT22;10984;45.712;4.800;2023-05-25T01:35:33;13.70;1.00
21646;DHT22;10984;45.712;4.800;2023-05-25T01:37:59;13.60;1.00
21646;DHT22;10984;45.712;4.800;2023-05-25T01:40:26;13.60;1.00
21646;DHT22;10984;45.712;4.800;2023-05-25T01:42:51;13.60;1.00
21646;DHT22;10984;45.712;4.800;2023-05-25T01:45:17;13.60;1.00
21646;DHT22;10984;45.712;4.800;2023-05-25T01:53:56;13.40;1.00
21646;DHT22;10984;45.712;4.800;2023-05-25T01:56:24;13.40;1.00
21646;DHT22;10984;45.712;4.800;2023-05-25T01:58:53;13.50;1.00
21646;DHT22;10984;45.712;4.800;2023-05-25T02:01:19;13.50;1.00
21646;DHT22;10984;45.712;4.800;2023-05-25T02:03:48;13.50;1.00
21646;DHT22;10984;45.712;4.800;2023-05-25T02:06:15;13.40;1.00
21646;DHT22;10984;45.712;4.800;2023-05-25T02:08:41;13.40;1.00
21646;DHT22;10984;45.712;4.800;2023-05-25T02:11:08;13.40;1.00
21646;DHT22;10984;45.712;4.800;2023-05-25T02:13:35;13.30;1.00
21646;DHT22;10984;45.712;4.800;2023-05-25T02:16:00;13.30;1.00
21646;DHT22;10984;45.712;4.800;2023-05-25T02:18:26;13.20;1.00
21646;DHT22;10984;45.712;4.800;2023-05-25T02:20:52;13.20;1.00
21646;DHT22;10984;45.712;4.800;2023-05-25T02:23:18;13.20;1.00
21646;DHT22;10984;45.712;4.800;2023-05-25T02:25:44;13.20;1.00
21646;DHT22;10984;45.712;4.800;2023-05-25T02:28:10;13.10;1.00
21646;DHT22;10984;45.712;4.800;2023-05-25T02:30:36;13.10;1.00
21646;DHT22;10984;45.712;4.800;2023-05-25T02:33:01;13.10;1.00
21646;DHT22;10984;45.712;4.800;2023-05-25T02:35:27;13.10;1.00
21646;DHT22;10984;45.712;4.800;2023-05-25T02:37:53;13.00;1.00
21646;DHT22;10984;45.712;4.800;2023-05-25T02:40:18;13.00;1.00
21646;DHT22;10984;45.712;4.800;2023-05-25T02:42:44;13.00;1.00
21646;DHT22;10984;45.712;4.800;2023-05-25T02:45:10;13.00;1.00
21646;DHT22;10984;45.712;4.800;2023-05-25T02:47:36;12.90;1.00
21646;DHT22;10984;45.712;4.800;2023-05-25T02:50:02;12.90;1.00
21646;DHT22;10984;45.712;4.800;2023-05-25T02:52:28;12.80;1.00
21646;DHT22;10984;45.712;4.800;2023-05-25T02:54:57;12.80;1.00
21646;DHT22;10984;45.712;4.800;2023-05-25T02:57:22;12.80;1.00
21646;DHT22;10984;45.712;4.800;2023-05-25T02:59:49;12.70;1.00
21646;DHT22;10984;45.712;4.800;2023-05-25T03:02:15;12.70;1.00
21646;DHT22;10984;45.712;4.800;2023-05-25T03:04:46;12.70;1.00
21646;DHT22;10984;45.712;4.800;2023-05-25T03:07:14;12.60;1.00
21646;DHT22;10984;45.712;4.800;2023-05-25T03:09:39;12.60;1.00
21646;DHT22;10984;45.712;4.800;2023-05-25T03:12:05;12.60;1.00
21646;DHT22;10984;45.712;4.800;2023-05-25T03:14:31;12.50;1.00
21646;DHT22;10984;45.712;4.800;2023-05-25T03:16:56;12.50;1.00
21646;DHT22;10984;45.712;4.800;2023-05-25T03:19:22;12.50;1.00
21646;DHT22;10984;45.712;4.800;2023-05-25T03:21:48;12.50;1.00
21646;DHT22;10984;45.712;4.800;2023-05-25T03:24:14;12.40;1.00
21646;DHT22;10984;45.712;4.800;2023-05-25T03:26:39;12.40;1.00
21646;DHT22;10984;45.712;4.800;2023-05-25T03:29:05;12.40;1.00
21646;DHT22;10984;45.712;4.800;2023-05-25T03:31:49;12.40;1.00
21646;DHT22;10984;45.712;4.800;2023-05-25T03:34:14;12.30;1.00
21646;DHT22;10984;45.712;4.800;2023-05-25T03:36:40;12.30;1.00
21646;DHT22;10984;45.712;4.800;2023-05-25T03:39:10;12.20;1.00
21646;DHT22;10984;45.712;4.800;2023-05-25T03:41:36;12.10;1.00
21646;DHT22;10984;45.712;4.800;2023-05-25T03:44:02;12.10;1.00
21646;DHT22;10984;45.712;4.800;2023-05-25T03:46:27;12.10;1.00
21646;DHT22;10984;45.712;4.800;2023-05-25T03:48:53;12.10;1.00
21646;DHT22;10984;45.712;4.800;2023-05-25T03:51:18;12.00;1.00
21646;DHT22;10984;45.712;4.800;2023-05-25T03:53:44;11.90;1.00
21646;DHT22;10984;45.712;4.800;2023-05-25T03:56:10;11.80;1.00
21646;DHT22;10984;45.712;4.800;2023-05-25T03:58:35;11.70;1.00
21646;DHT22;10984;45.712;4.800;2023-05-25T04:01:01;11.60;1.00
21646;DHT22;10984;45.712;4.800;2023-05-25T04:03:27;11.60;1.00
21646;DHT22;10984;45.712;4.800;2023-05-25T04:05:53;11.60;1.00
21646;DHT22;10984;45.712;4.800;2023-05-25T04:08:18;11.60;1.00
21646;DHT22;10984;45.712;4.800;2023-05-25T04:11:02;11.50;1.00
21646;DHT22;10984;45.712;4.800;2023-05-25T04:13:28;11.40;1.00
21646;DHT22;10984;45.712;4.800;2023-05-25T04:15:54;11.50;1.00
21646;DHT22;10984;45.712;4.800;2023-05-25T04:18:20;11.70;1.00
21646;DHT22;10984;45.712;4.800;2023-05-25T04:20:46;11.70;1.00
21646;DHT22;10984;45.712;4.800;2023-05-25T04:23:11;11.60;1.00
21646;DHT22;10984;45.712;4.800;2023-05-25T04:25:37;11.70;1.00
21646;DHT22;10984;45.712;4.800;2023-05-25T04:28:03;11.80;1.00
21646;DHT22;10984;45.712;4.800;2023-05-25T04:30:28;12.00;1.00
21646;DHT22;10984;45.712;4.800;2023-05-25T04:32:55;12.10;1.00
21646;DHT22;10984;45.712;4.800;2023-05-25T04:35:22;12.20;1.00
21646;DHT22;10984;45.712;4.800;2023-05-25T04:37:47;12.20;1.00
21646;DHT22;10984;45.712;4.800;2023-05-25T04:40:13;12.40;1.00
21646;DHT22;10984;45.712;4.800;2023-05-25T04:42:39;12.60;1.00
21646;DHT22;10984;45.712;4.800;2023-05-25T04:45:06;12.80;1.00
21646;DHT22;10984;45.712;4.800;2023-05-25T04:47:34;13.20;1.00
21646;DHT22;10984;45.712;4.800;2023-05-25T04:50:02;13.70;1.00
21646;DHT22;10984;45.712;4.800;2023-05-25T04:52:28;14.00;1.00
21646;DHT22;10984;45.712;4.800;2023-05-25T04:54:54;14.40;1.00
21646;DHT22;10984;45.712;4.800;2023-05-25T04:57:20;14.80;1.00
21646;DHT22;10984;45.712;4.800;2023-05-25T04:59:46;14.90;1.00
21646;DHT22;10984;45.712;4.800;2023-05-25T05:02:12;15.50;1.00
21646;DHT22;10984;45.712;4.800;2023-05-25T05:04:37;15.90;1.00
21646;DHT22;10984;45.712;4.800;2023-05-25T05:07:05;16.40;1.00
21646;DHT22;10984;45.712;4.800;2023-05-25T05:09:32;16.50;1.00
21646;DHT22;10984;45.712;4.800;2023-05-25T05:11:58;16.70;1.00
21646;DHT22;10984;45.712;4.800;2023-05-25T05:14:23;17.40;1.00
21646;DHT22;10984;45.712;4.800;2023-05-25T05:16:49;18.10;1.00
21646;DHT22;10984;45.712;4.800;2023-05-25T05:19:15;18.50;1.00
21646;DHT22;10984;45.712;4.800;2023-05-25T05:21:41;18.60;1.00
21646;DHT22;10984;45.712;4.800;2023-05-25T05:24:06;18.50;1.00
21646;DHT22;10984;45.712;4.800;2023-05-25T05:26:32;18.00;1.00
21646;DHT22;10984;45.712;4.800;2023-05-25T05:28:58;18.50;1.00
21646;DHT22;10984;45.712;4.800;2023-05-25T05:31:23;18.60;1.00
21646;DHT22;10984;45.712;4.800;2023-05-25T05:33:51;19.00;1.00
21646;DHT22;10984;45.712;4.800;2023-05-25T05:36:17;19.20;1.00
21646;DHT22;10984;45.712;4.800;2023-05-25T05:38:43;19.50;1.00
21646;DHT22;10984;45.712;4.800;2023-05-25T05:41:11;18.90;1.00
21646;DHT22;10984;45.712;4.800;2023-05-25T05:43:55;18.90;1.00
21646;DHT22;10984;45.712;4.800;2023-05-25T05:46:21;19.40;1.00
21646;DHT22;10984;45.712;4.800;2023-05-25T05:48:46;20.00;1.00
21646;DHT22;10984;45.712;4.800;2023-05-25T05:51:12;20.30;1.00
21646;DHT22;10984;45.712;4.800;2023-05-25T05:53:38;20.10;1.00
21646;DHT22;10984;45.712;4.800;2023-05-25T05:56:03;20.30;1.00
21646;DHT22;10984;45.712;4.800;2023-05-25T05:58:30;20.50;1.00
21646;DHT22;10984;45.712;4.800;2023-05-25T06:00:56;20.30;99.90
21646;DHT22;10984;45.712;4.800;2023-05-25T06:03:24;20.40;99.90
21646;DHT22;10984;45.712;4.800;2023-05-25T06:05:51;20.50;99.90
21646;DHT22;10984;45.712;4.800;2023-05-25T06:08:17;20.70;99.90
21646;DHT22;10984;45.712;4.800;2023-05-25T06:10:43;20.60;99.90
21646;DHT22;10984;45.712;4.800;2023-05-25T06:13:09;20.80;99.90
21646;DHT22;10984;45.712;4.800;2023-05-25T06:15:34;20.80;99.90
21646;DHT22;10984;45.712;4.800;2023-05-25T06:18:00;20.40;99.90
21646;DHT22;10984;45.712;4.800;2023-05-25T06:20:26;20.00;99.90
21646;DHT22;10984;45.712;4.800;2023-05-25T06:22:51;20.20;99.90
21646;DHT22;10984;45.712;4.800;2023-05-25T06:25:18;20.90;99.90
21646;DHT22;10984;45.712;4.800;2023-05-25T06:27:44;21.00;99.90
21646;DHT22;10984;45.712;4.800;2023-05-25T06:30:10;21.20;99.90
21646;DHT22;10984;45.712;4.800;2023-05-25T06:32:36;21.00;99.90
21646;DHT22;10984;45.712;4.800;2023-05-25T06:35:02;20.90;99.90
21646;DHT22;10984;45.712;4.800;2023-05-25T06:37:28;21.70;99.90
21646;DHT22;10984;45.712;4.800;2023-05-25T06:39:59;21.80;99.90
21646;DHT22;10984;45.712;4.800;2023-05-25T06:42:26;21.80;99.90
21646;DHT22;10984;45.712;4.800;2023-05-25T06:44:52;21.50;99.90
21646;DHT22;10984;45.712;4.800;2023-05-25T06:47:18;21.70;99.90
21646;DHT22;10984;45.712;4.800;2023-05-25T06:49:43;22.50;99.90
21646;DHT22;10984;45.712;4.800;2023-05-25T06:52:09;22.70;99.90
21646;DHT22;10984;45.712;4.800;2023-05-25T06:54:34;22.70;99.90
21646;DHT22;10984;45.712;4.800;2023-05-25T06:57:00;22.50;99.90
21646;DHT22;10984;45.712;4.800;2023-05-25T06:59:26;22.00;99.90
21646;DHT22;10984;45.712;4.800;2023-05-25T07:01:52;21.30;99.90
21646;DHT22;10984;45.712;4.800;2023-05-25T07:04:18;20.70;99.90
21646;DHT22;10984;45.712;4.800;2023-05-25T07:06:44;20.20;99.90
21646;DHT22;10984;45.712;4.800;2023-05-25T07:09:09;19.50;99.90
21646;DHT22;10984;45.712;4.800;2023-05-25T07:11:35;18.90;99.90
21646;DHT22;10984;45.712;4.800;2023-05-25T07:14:01;18.00;99.90
21646;DHT22;10984;45.712;4.800;2023-05-25T07:16:26;17.60;99.90
21646;DHT22;10984;45.712;4.800;2023-05-25T07:18:52;17.40;99.90
21646;DHT22;10984;45.712;4.800;2023-05-25T07:21:18;17.40;99.90
21646;DHT22;10984;45.712;4.800;2023-05-25T07:23:43;17.20;99.90
21646;DHT22;10984;45.712;4.800;2023-05-25T07:26:09;17.20;99.90
21646;DHT22;10984;45.712;4.800;2023-05-25T07:28:35;17.10;99.90
21646;DHT22;10984;45.712;4.800;2023-05-25T07:31:00;17.20;99.90
21646;DHT22;10984;45.712;4.800;2023-05-25T07:33:26;16.80;99.90
21646;DHT22;10984;45.712;4.800;2023-05-25T07:35:51;16.40;99.90
21646;DHT22;10984;45.712;4.800;2023-05-25T07:38:17;16.20;99.90
21646;DHT22;10984;45.712;4.800;2023-05-25T07:40:43;16.30;99.90
21646;DHT22;10984;45.712;4.800;2023-05-25T07:43:11;16.20;99.90
21646;DHT22;10984;45.712;4.800;2023-05-25T07:45:37;16.30;99.90
21646;DHT22;10984;45.712;4.800;2023-05-25T07:48:03;16.50;99.90
21646;DHT22;10984;45.712;4.800;2023-05-25T07:50:31;16.50;99.90
21646;DHT22;10984;45.712;4.800;2023-05-25T07:52:56;16.60;99.90
21646;DHT22;10984;45.712;4.800;2023-05-25T07:55:25;16.60;99.90
21646;DHT22;10984;45.712;4.800;2023-05-25T07:57:51;16.80;99.90
21646;DHT22;10984;45.712;4.800;2023-05-25T08:00:17;16.60;99.90
21646;DHT22;10984;45.712;4.800;2023-05-25T08:02:43;16.80;99.90
21646;DHT22;10984;45.712;4.800;2023-05-25T08:05:09;17.10;99.90
21646;DHT22;10984;45.712;4.800;2023-05-25T08:07:35;17.40;99.90
21646;DHT22;10984;45.712;4.800;2023-05-25T08:13:22;17.10;99.90
21646;DHT22;10984;45.712;4.800;2023-05-25T08:15:48;17.40;99.90
21646;DHT22;10984;45.712;4.800;2023-05-25T08:18:14;17.50;99.90
21646;DHT22;10984;45.712;4.800;2023-05-25T08:20:40;17.60;99.90
21646;DHT22;10984;45.712;4.800;2023-05-25T08:23:06;17.30;99.90
21646;DHT22;10984;45.712;4.800;2023-05-25T08:25:32;17.50;99.90
21646;DHT22;10984;45.712;4.800;2023-05-25T08:27:58;17.70;99.90
21646;DHT22;10984;45.712;4.800;2023-05-25T08:30:23;17.70;99.90
21646;DHT22;10984;45.712;4.800;2023-05-25T08:32:49;17.80;99.90
21646;DHT22;10984;45.712;4.800;2023-05-25T08:35:15;17.70;99.90
21646;DHT22;10984;45.712;4.800;2023-05-25T08:37:42;18.10;99.90
21646;DHT22;10984;45.712;4.800;2023-05-25T08:40:14;18.30;99.90
21646;DHT22;10984;45.712;4.800;2023-05-25T08:45:25;18.70;99.90
21646;DHT22;10984;45.712;4.800;2023-05-25T08:47:53;19.10;99.90
21646;DHT22;10984;45.712;4.800;2023-05-25T08:50:23;19.00;99.90
21646;DHT22;10984;45.712;4.800;2023-05-25T08:52:50;19.10;99.90
21646;DHT22;10984;45.712;4.800;2023-05-25T08:55:19;19.10;99.90
21646;DHT22;10984;45.712;4.800;2023-05-25T08:57:51;19.00;99.90
21646;DHT22;10984;45.712;4.800;2023-05-25T09:00:24;18.90;99.90
21646;DHT22;10984;45.712;4.800;2023-05-25T09:05:42;19.10;99.90
21646;DHT22;10984;45.712;4.800;2023-05-25T09:08:08;19.30;99.90
21646;DHT22;10984;45.712;4.800;2023-05-25T09:10:37;19.10;99.90
21646;DHT22;10984;45.712;4.800;2023-05-25T09:13:03;19.10;99.90
21646;DHT22;10984;45.712;4.800;2023-05-25T09:15:31;18.90;99.90
21646;DHT22;10984;45.712;4.800;2023-05-25T09:17:56;19.10;99.90
21646;DHT22;10984;45.712;4.800;2023-05-25T09:20:23;19.10;99.90
21646;DHT22;10984;45.712;4.800;2023-05-25T09:22:49;19.10;99.90
21646;DHT22;10984;45.712;4.800;2023-05-25T09:25:17;18.90;99.90
21646;DHT22;10984;45.712;4.800;2023-05-25T09:28:01;18.70;99.90
21646;DHT22;10984;45.712;4.800;2023-05-25T09:30:27;18.90;99.90
21646;DHT22;10984;45.712;4.800;2023-05-25T09:33:17;18.70;99.90
21646;DHT22;10984;45.712;4.800;2023-05-25T09:35:46;18.60;99.90
21646;DHT22;10984;45.712;4.800;2023-05-25T09:38:14;18.60;99.90
21646;DHT22;10984;45.712;4.800;2023-05-25T09:40:40;18.60;99.90
21646;DHT22;10984;45.712;4.800;2023-05-25T09:43:05;18.70;99.90
21646;DHT22;10984;45.712;4.800;2023-05-25T09:45:31;18.70;99.90
21646;DHT22;10984;45.712;4.800;2023-05-25T09:47:58;19.10;99.90
21646;DHT22;10984;45.712;4.800;2023-05-25T09:50:27;18.90;99.90
21646;DHT22;10984;45.712;4.800;2023-05-25T09:52:57;19.20;99.90
21646;DHT22;10984;45.712;4.800;2023-05-25T09:58:10;19.20;99.90
21646;DHT22;10984;45.712;4.800;2023-05-25T10:00:37;19.20;99.90
21646;DHT22;10984;45.712;4.800;2023-05-25T10:03:03;18.90;99.90
21646;DHT22;10984;45.712;4.800;2023-05-25T10:05:28;19.10;99.90
21646;DHT22;10984;45.712;4.800;2023-05-25T10:07:54;19.20;99.90
21646;DHT22;10984;45.712;4.800;2023-05-25T10:10:21;19.60;99.90
21646;DHT22;10984;45.712;4.800;2023-05-25T10:12:49;19.70;99.90
21646;DHT22;10984;45.712;4.800;2023-05-25T10:15:17;19.80;99.90
21646;DHT22;10984;45.712;4.800;2023-05-25T10:18:03;20.20;99.90
21646;DHT22;10984;45.712;4.800;2023-05-25T10:20:31;20.40;99.90
21646;DHT22;10984;45.712;4.800;2023-05-25T10:23:16;20.30;99.90
21646;DHT22;10984;45.712;4.800;2023-05-25T10:25:46;20.00;99.90
21646;DHT22;10984;45.712;4.800;2023-05-25T10:31:17;19.60;99.90
21646;DHT22;10984;45.712;4.800;2023-05-25T10:33:43;19.80;99.90
21646;DHT22;10984;45.712;4.800;2023-05-25T10:36:10;19.80;99.90
21646;DHT22;10984;45.712;4.800;2023-05-25T10:38:41;19.80;99.90
21646;DHT22;10984;45.712;4.800;2023-05-25T10:41:09;19.70;99.90
21646;DHT22;10984;45.712;4.800;2023-05-25T10:43:37;19.80;99.90
21646;DHT22;10984;45.712;4.800;2023-05-25T10:46:04;20.00;99.90
21646;DHT22;10984;45.712;4.800;2023-05-25T10:48:49;20.00;99.90
21646;DHT22;10984;45.712;4.800;2023-05-25T10:51:18;20.40;99.90
21646;DHT22;10984;45.712;4.800;2023-05-25T10:53:47;20.30;99.90
21646;DHT22;10984;45.712;4.800;2023-05-25T10:56:22;20.60;99.90
21646;DHT22;10984;45.712;4.800;2023-05-25T10:58:48;20.60;99.90
21646;DHT22;10984;45.712;4.800;2023-05-25T11:01:14;20.80;99.90
21646;DHT22;10984;45.712;4.800;2023-05-25T11:09:29;20.00;99.90
21646;DHT22;10984;45.712;4.800;2023-05-25T11:12:32;19.70;99.90
21646;DHT22;10984;45.712;4.800;2023-05-25T11:15:16;19.40;99.90
21646;DHT22;10984;45.712;4.800;2023-05-25T11:18:05;19.50;99.90
21646;DHT22;10984;45.712;4.800;2023-05-25T11:20:38;19.30;99.90
21646;DHT22;10984;45.712;4.800;2023-05-25T11:23:21;19.10;99.90
21646;DHT22;10984;45.712;4.800;2023-05-25T11:25:47;19.10;99.90
21646;DHT22;10984;45.712;4.800;2023-05-25T11:28:14;18.90;99.90
21646;DHT22;10984;45.712;4.800;2023-05-25T11:30:40;18.80;99.90
21646;DHT22;10984;45.712;4.800;2023-05-25T11:33:24;18.90;99.90
21646;DHT22;10984;45.712;4.800;2023-05-25T11:35:50;19.10;99.90
21646;DHT22;10984;45.712;4.800;2023-05-25T11:38:16;19.10;99.90
21646;DHT22;10984;45.712;4.800;2023-05-25T11:40:42;19.20;99.90
21646;DHT22;10984;45.712;4.800;2023-05-25T11:43:08;19.30;99.90
21646;DHT22;10984;45.712;4.800;2023-05-25T11:45:35;19.40;99.90
21646;DHT22;10984;45.712;4.800;2023-05-25T11:48:03;19.40;99.90
21646;DHT22;10984;45.712;4.800;2023-05-25T11:50:29;19.40;99.90
21646;DHT22;10984;45.712;4.800;2023-05-25T11:52:55;19.50;99.90
21646;DHT22;10984;45.712;4.800;2023-05-25T11:55:21;19.40;99.90
21646;DHT22;10984;45.712;4.800;2023-05-25T11:57:54;19.70;99.90
21646;DHT22;10984;45.712;4.800;2023-05-25T12:00:39;20.20;99.90
21646;DHT22;10984;45.712;4.800;2023-05-25T12:03:04;20.40;99.90
21646;DHT22;10984;45.712;4.800;2023-05-25T12:05:49;20.60;99.90
21646;DHT22;10984;45.712;4.800;2023-05-25T12:08:14;21.20;99.90
21646;DHT22;10984;45.712;4.800;2023-05-25T12:10:59;21.80;99.90
21646;DHT22;10984;45.712;4.800;2023-05-25T12:13:25;21.90;99.90
21646;DHT22;10984;45.712;4.800;2023-05-25T12:15:54;21.90;99.90
21646;DHT22;10984;45.712;4.800;2023-05-25T12:18:22;22.40;99.90
21646;DHT22;10984;45.712;4.800;2023-05-25T12:20:48;22.70;99.90
21646;DHT22;10984;45.712;4.800;2023-05-25T12:23:14;22.70;99.90
21646;DHT22;10984;45.712;4.800;2023-05-25T12:25:40;22.70;95.00
21646;DHT22;10984;45.712;4.800;2023-05-25T12:28:24;23.20;84.00
21646;DHT22;10984;45.712;4.800;2023-05-25T12:30:49;23.20;14.80
21646;DHT22;10984;45.712;4.800;2023-05-25T12:33:15;22.60;53.20
21646;DHT22;10984;45.712;4.800;2023-05-25T12:35:59;22.60;94.60
21646;DHT22;10984;45.712;4.800;2023-05-25T12:38:25;22.60;52.40
21646;DHT22;10984;45.712;4.800;2023-05-25T12:41:09;22.80;99.90
21646;DHT22;10984;45.712;4.800;2023-05-25T12:43:53;23.20;79.10
21646;DHT22;10984;45.712;4.800;2023-05-25T12:46:37;23.10;10.60
21646;DHT22;10984;45.712;4.800;2023-05-25T12:49:03;23.10;39.20
21646;DHT22;10984;45.712;4.800;2023-05-25T12:51:45;22.90;47.70
21646;DHT22;10984;45.712;4.800;2023-05-25T12:54:11;22.80;59.90
21646;DHT22;10984;45.712;4.800;2023-05-25T12:56:53;22.90;92.30
21646;DHT22;10984;45.712;4.800;2023-05-25T12:59:18;22.60;20.90
21646;DHT22;10984;45.712;4.800;2023-05-25T13:01:44;22.50;40.00
21646;DHT22;10984;45.712;4.800;2023-05-25T13:04:10;22.50;56.30
21646;DHT22;10984;45.712;4.800;2023-05-25T13:06:35;22.50;77.30
21646;DHT22;10984;45.712;4.800;2023-05-25T13:09:01;22.20;97.80
21646;DHT22;10984;45.712;4.800;2023-05-25T13:11:26;22.10;99.90
21646;DHT22;10984;45.712;4.800;2023-05-25T13:13:53;21.80;99.90
21646;DHT22;10984;45.712;4.800;2023-05-25T13:16:18;21.80;58.60
21646;DHT22;10984;45.712;4.800;2023-05-25T13:18:44;21.70;73.50
21646;DHT22;10984;45.712;4.800;2023-05-25T13:21:09;21.80;96.50
21646;DHT22;10984;45.712;4.800;2023-05-25T13:23:35;21.80;84.90
21646;DHT22;10984;45.712;4.800;2023-05-25T13:26:01;21.60;89.50
21646;DHT22;10984;45.712;4.800;2023-05-25T13:28:27;21.90;46.50
21646;DHT22;10984;45.712;4.800;2023-05-25T13:30:53;21.90;62.80
21646;DHT22;10984;45.712;4.800;2023-05-25T13:33:18;21.70;56.70
21646;DHT22;10984;45.712;4.800;2023-05-25T13:35:44;21.60;90.20
21646;DHT22;10984;45.712;4.800;2023-05-25T13:38:22;21.70;80.80
21646;DHT22;10984;45.712;4.800;2023-05-25T13:40:48;21.40;99.80
21646;DHT22;10984;45.712;4.800;2023-05-25T13:43:14;21.50;99.90
21646;DHT22;10984;45.712;4.800;2023-05-25T13:45:39;21.50;99.90
21646;DHT22;10984;45.712;4.800;2023-05-25T13:48:05;21.50;99.90
21646;DHT22;10984;45.712;4.800;2023-05-25T13:50:30;21.60;99.90
21646;DHT22;10984;45.712;4.800;2023-05-25T13:52:56;21.60;99.90
21646;DHT22;10984;45.712;4.800;2023-05-25T13:55:22;21.20;99.90
21646;DHT22;10984;45.712;4.800;2023-05-25T13:57:47;21.30;99.90
21646;DHT22;10984;45.712;4.800;2023-05-25T14:00:13;21.30;99.90
21646;DHT22;10984;45.712;4.800;2023-05-25T14:02:39;21.30;99.90
21646;DHT22;10984;45.712;4.800;2023-05-25T14:05:05;21.30;99.90
21646;DHT22;10984;45.712;4.800;2023-05-25T14:07:30;21.20;99.90
21646;DHT22;10984;45.712;4.800;2023-05-25T14:09:57;21.10;99.90
21646;DHT22;10984;45.712;4.800;2023-05-25T14:12:22;21.10;99.90
21646;DHT22;10984;45.712;4.800;2023-05-25T14:14:48;21.10;99.90
21646;DHT22;10984;45.712;4.800;2023-05-25T14:17:14;21.10;99.90
21646;DHT22;10984;45.712;4.800;2023-05-25T14:19:40;21.10;99.90
21646;DHT22;10984;45.712;4.800;2023-05-25T14:22:05;21.10;99.90
21646;DHT22;10984;45.712;4.800;2023-05-25T14:24:32;21.20;99.90
21646;DHT22;10984;45.712;4.800;2023-05-25T14:26:57;21.20;99.90
21646;DHT22;10984;45.712;4.800;2023-05-25T14:29:23;21.20;99.90
21646;DHT22;10984;45.712;4.800;2023-05-25T14:31:48;21.20;99.90
21646;DHT22;10984;45.712;4.800;2023-05-25T14:34:15;21.20;99.90
21646;DHT22;10984;45.712;4.800;2023-05-25T14:36:40;21.20;99.90
21646;DHT22;10984;45.712;4.800;2023-05-25T14:39:06;21.10;99.90
21646;DHT22;10984;45.712;4.800;2023-05-25T14:41:31;21.10;99.90
21646;DHT22;10984;45.712;4.800;2023-05-25T14:43:57;20.90;99.90
21646;DHT22;10984;45.712;4.800;2023-05-25T14:46:23;21.00;99.90
21646;DHT22;10984;45.712;4.800;2023-05-25T14:48:48;21.10;99.90
21646;DHT22;10984;45.712;4.800;2023-05-25T14:51:14;21.20;99.90
21646;DHT22;10984;45.712;4.800;2023-05-25T14:53:39;21.30;99.90
21646;DHT22;10984;45.712;4.800;2023-05-25T14:56:05;21.20;99.90
21646;DHT22;10984;45.712;4.800;2023-05-25T14:58:31;21.10;99.90
21646;DHT22;10984;45.712;4.800;2023-05-25T15:00:57;21.20;99.90
21646;DHT22;10984;45.712;4.800;2023-05-25T15:03:23;21.20;99.90
21646;DHT22;10984;45.712;4.800;2023-05-25T15:05:48;21.30;99.90
21646;DHT22;10984;45.712;4.800;2023-05-25T15:08:14;21.30;99.90
21646;DHT22;10984;45.712;4.800;2023-05-25T15:10:40;21.30;99.90
21646;DHT22;10984;45.712;4.800;2023-05-25T15:13:05;21.30;99.90
21646;DHT22;10984;45.712;4.800;2023-05-25T15:15:31;21.10;99.90
21646;DHT22;10984;45.712;4.800;2023-05-25T15:17:57;21.20;99.90
21646;DHT22;10984;45.712;4.800;2023-05-25T15:20:22;21.20;99.90
21646;DHT22;10984;45.712;4.800;2023-05-25T15:22:48;21.30;99.90
21646;DHT22;10984;45.712;4.800;2023-05-25T15:25:15;21.30;99.90
21646;DHT22;10984;45.712;4.800;2023-05-25T15:27:41;21.30;99.90
21646;DHT22;10984;45.712;4.800;2023-05-25T15:30:07;21.30;99.90
21646;DHT22;10984;45.712;4.800;2023-05-25T15:32:32;21.30;99.90
21646;DHT22;10984;45.712;4.800;2023-05-25T15:34:58;21.30;99.90
21646;DHT22;10984;45.712;4.800;2023-05-25T15:37:24;21.30;99.90
21646;DHT22;10984;45.712;4.800;2023-05-25T15:39:49;21.30;99.90
21646;DHT22;10984;45.712;4.800;2023-05-25T15:42:15;21.30;99.90
21646;DHT22;10984;45.712;4.800;2023-05-25T15:44:41;21.30;99.90
21646;DHT22;10984;45.712;4.800;2023-05-25T15:47:06;21.30;99.90
21646;DHT22;10984;45.712;4.800;2023-05-25T15:49:32;21.30;99.90
21646;DHT22;10984;45.712;4.800;2023-05-25T15:52:01;21.30;99.90
21646;DHT22;10984;45.712;4.800;2023-05-25T15:54:27;21.30;99.90
21646;DHT22;10984;45.712;4.800;2023-05-25T15:56:52;21.30;99.90
21646;DHT22;10984;45.712;4.800;2023-05-25T15:59:18;21.40;99.90
21646;DHT22;10984;45.712;4.800;2023-05-25T16:01:43;21.40;99.90
21646;DHT22;10984;45.712;4.800;2023-05-25T16:04:09;21.40;99.90
21646;DHT22;10984;45.712;4.800;2023-05-25T16:06:35;21.40;99.90
21646;DHT22;10984;45.712;4.800;2023-05-25T16:09:02;21.50;99.90
21646;DHT22;10984;45.712;4.800;2023-05-25T16:11:28;21.50;99.90